Time;durP1;ratioP1;P1;durP2;ratioP2;P2;SDS_P1;SDS_P2;PMS_P1;PMS_P2;Temp;Humidity;BMP_temperature;BMP_pressure;BME280_temperature;BME280_humidity;BME280_pressure;Samples;Min_cycle;Max_cycle;Signal;HPM_P1;HPM_P2
2022/08/06 00:02:29;;;;;;;0.38;0.20;;;23.10;64.00;;;;;;6211906;22;43651;-62
2022/08/06 00:05:00;;;;;;;0.28;0.28;;;23.10;64.00;;;;;;6213450;22;43222;-63
2022/08/06 00:07:32;;;;;;;0.25;0.25;;;23.10;64.00;;;;;;6212930;22;43308;-63
2022/08/06 00:10:13;;;;;;;0.38;0.30;;;23.10;64.00;;;;;;6211633;22;44039;-62
2022/08/06 00:12:41;;;;;;;0.30;0.30;;;23.00;63.90;;;;;;6212780;22;45025;-63
2022/08/06 00:15:12;;;;;;;0.35;0.30;;;23.10;64.00;;;;;;6212907;22;43276;-63
2022/08/06 00:17:45;;;;;;;0.50;0.22;;;23.00;63.90;;;;;;6212188;22;43285;-62
2022/08/06 00:20:15;;;;;;;0.30;0.30;;;23.00;63.90;;;;;;6212287;22;43741;-62
2022/08/06 00:22:58;;;;;;;0.30;0.30;;;23.00;63.90;;;;;;6213336;22;43883;-63
2022/08/06 00:25:28;;;;;;;0.17;0.17;;;23.00;64.00;;;;;;6212311;22;43635;-63
2022/08/06 00:28:11;;;;;;;0.82;0.32;;;23.00;64.00;;;;;;6212377;22;43330;-63
2022/08/06 00:30:39;;;;;;;0.80;0.20;;;23.00;64.10;;;;;;6211660;22;43742;-63
2022/08/06 00:33:10;;;;;;;0.20;0.20;;;23.00;64.00;;;;;;6212723;22;44060;-62
2022/08/06 00:35:41;;;;;;;;;;;22.90;63.90;;;;;;6213461;22;43280;-62
2022/08/06 00:38:12;;;;;;;0.63;0.40;;;23.00;64.00;;;;;;6211965;22;43356;-63
2022/08/06 00:40:41;;;;;;;0.20;0.20;;;22.90;64.00;;;;;;6212478;22;44936;-62
2022/08/06 00:43:26;;;;;;;0.20;0.20;;;22.90;64.00;;;;;;6186213;22;44066;-62
2022/08/06 00:46:07;;;;;;;0.38;0.30;;;22.90;64.00;;;;;;6185350;22;43239;-62
2022/08/06 00:48:43;;;;;;;0.38;0.30;;;22.90;64.00;;;;;;6213014;22;43288;-62
2022/08/06 00:51:22;;;;;;;0.30;0.30;;;22.90;64.00;;;;;;6211568;22;44774;-62
2022/08/06 00:53:51;;;;;;;0.40;0.35;;;22.90;64.10;;;;;;6212663;22;43904;-62
2022/08/06 00:56:24;;;;;;;0.32;0.30;;;22.90;64.00;;;;;;6212595;22;43281;-63
2022/08/06 00:58:55;;;;;;;0.32;0.30;;;22.90;64.00;;;;;;6213141;22;43312;-64
2022/08/06 01:01:31;;;;;;;0.30;0.30;;;22.80;63.90;;;;;;6213397;22;43744;-63
2022/08/06 01:04:18;;;;;;;0.30;0.30;;;22.90;64.00;;;;;;6213959;22;43281;-62
2022/08/06 01:06:46;;;;;;;0.47;0.20;;;22.90;64.00;;;;;;6212966;22;43230;-62
2022/08/06 01:09:25;;;;;;;0.20;0.20;;;22.80;64.00;;;;;;6213876;22;43364;-63
2022/08/06 01:11:57;;;;;;;0.20;0.20;;;22.80;63.90;;;;;;6213804;22;44920;-63
2022/08/06 01:14:27;;;;;;;0.20;0.20;;;22.80;63.90;;;;;;6212511;22;43708;-63
2022/08/06 01:17:27;;;;;;;0.50;0.20;;;22.80;63.90;;;;;;6214004;22;43269;-62
2022/08/06 01:20:04;;;;;;;0.30;0.30;;;22.80;64.00;;;;;;6213096;22;43368;-63
2022/08/06 01:23:09;;;;;;;0.38;0.28;;;22.80;64.00;;;;;;6213663;22;44646;-62
2022/08/06 01:25:56;;;;;;;0.28;0.28;;;22.80;64.00;;;;;;6213535;22;43617;-62
2022/08/06 01:28:48;;;;;;;0.57;0.30;;;22.80;64.00;;;;;;6212449;22;43271;-63
2022/08/06 01:31:41;;;;;;;0.10;0.10;;;22.80;64.00;;;;;;6213317;22;43455;-62
2022/08/06 01:34:31;;;;;;;0.35;0.20;;;22.70;64.00;;;;;;6136801;22;44943;-62
2022/08/06 01:37:11;;;;;;;0.20;0.20;;;22.70;64.00;;;;;;6213751;22;43871;-63
2022/08/06 01:39:42;;;;;;;0.25;0.20;;;22.70;64.00;;;;;;6213480;22;43223;-63
2022/08/06 01:42:30;;;;;;;0.20;0.20;;;22.70;64.00;;;;;;6212581;22;43284;-63
2022/08/06 01:45:07;;;;;;;0.30;0.30;;;22.70;64.00;;;;;;6214147;22;44284;-62
2022/08/06 01:47:38;;;;;;;0.50;0.40;;;22.70;64.10;;;;;;6212225;22;43253;-63
2022/08/06 01:50:26;;;;;;;0.25;0.25;;;22.70;64.00;;;;;;6213235;22;43399;-62
2022/08/06 01:52:57;;;;;;;0.20;0.20;;;22.70;64.00;;;;;;6214228;22;43719;-63
2022/08/06 01:55:42;;;;;;;0.70;0.30;;;22.70;64.00;;;;;;6212681;22;45010;-63
2022/08/06 01:58:30;;;;;;;0.25;0.20;;;22.70;64.00;;;;;;6212888;22;43920;-62
2022/08/06 02:01:06;;;;;;;0.47;0.20;;;22.70;64.00;;;;;;6213606;22;43285;-62
2022/08/06 02:03:44;;;;;;;0.20;0.20;;;22.70;64.00;;;;;;6212788;22;43775;-62
2022/08/06 02:06:32;;;;;;;0.13;0.13;;;22.60;64.00;;;;;;6212935;22;45011;-62
2022/08/06 02:09:03;;;;;;;0.20;0.20;;;22.60;64.00;;;;;;6212410;22;43912;-62
2022/08/06 02:12:10;;;;;;;0.10;0.10;;;22.60;64.00;;;;;;6213343;22;43241;-62
2022/08/06 02:14:52;;;;;;;0.22;0.20;;;22.60;64.00;;;;;;6213335;22;43275;-62
2022/08/06 02:17:27;;;;;;;0.20;0.20;;;22.60;64.00;;;;;;6212384;22;44898;-63
2022/08/06 02:20:18;;;;;;;0.30;0.30;;;22.60;64.00;;;;;;6212760;22;43284;-62
2022/08/06 02:23:09;;;;;;;0.38;0.25;;;22.60;64.00;;;;;;6212751;22;43193;-63
2022/08/06 02:25:40;;;;;;;0.57;0.40;;;22.60;64.00;;;;;;6213480;22;43274;-62
2022/08/06 02:28:12;;;;;;;0.38;0.38;;;22.60;64.00;;;;;;6212819;22;44939;-62
2022/08/06 02:30:54;;;;;;;0.20;0.20;;;22.60;64.00;;;;;;6212267;22;43637;-62
2022/08/06 02:33:22;;;;;;;0.30;0.30;;;22.60;64.00;;;;;;6213370;22;43240;-62
2022/08/06 02:36:23;;;;;;;0.32;0.20;;;22.60;64.00;;;;;;6213195;22;43236;-62
2022/08/06 02:39:02;;;;;;;0.20;0.20;;;22.60;64.00;;;;;;6212419;22;43770;-63
2022/08/06 02:41:52;;;;;;;0.20;0.20;;;22.60;64.00;;;;;;6213232;22;43684;-63
2022/08/06 02:44:40;;;;;;;;;;;22.50;63.90;;;;;;6212905;22;43323;-62
2022/08/06 02:47:20;;;;;;;0.20;0.20;;;22.50;63.90;;;;;;6213225;22;43256;-62
2022/08/06 02:50:05;;;;;;;0.10;0.10;;;22.50;64.00;;;;;;6213514;22;44847;-62
2022/08/06 02:52:33;;;;;;;0.28;0.28;;;22.50;64.00;;;;;;6212679;22;43333;-62
2022/08/06 02:55:11;;;;;;;0.47;0.47;;;22.50;64.00;;;;;;6213166;22;43257;-62
2022/08/06 02:57:47;;;;;;;0.30;0.30;;;22.50;64.00;;;;;;6213245;22;43330;-63
2022/08/06 03:00:19;;;;;;;0.25;0.20;;;22.50;64.00;;;;;;6212196;22;44919;-62
2022/08/06 03:02:59;;;;;;;0.30;0.30;;;22.50;63.90;;;;;;6213564;22;43679;-63
2022/08/06 03:05:29;;;;;;;0.30;0.30;;;22.40;63.90;;;;;;6212482;22;43157;-62
2022/08/06 03:08:21;;;;;;;0.20;0.20;;;22.40;63.90;;;;;;6212663;22;43325;-63
2022/08/06 03:10:55;;;;;;;0.30;0.30;;;22.40;64.50;;;;;;6213135;22;43952;-62
2022/08/06 03:13:25;;;;;;;0.20;0.20;;;22.40;63.90;;;;;;6212316;22;43639;-62
2022/08/06 03:16:04;;;;;;;0.35;0.22;;;22.40;63.80;;;;;;6213408;22;43235;-62
2022/08/06 03:18:53;;;;;;;0.30;0.20;;;22.40;63.90;;;;;;6212095;22;43388;-62
2022/08/06 03:21:42;;;;;;;0.20;0.10;;;22.40;63.80;;;;;;6212917;22;43764;-62
2022/08/06 03:24:25;;;;;;;0.28;0.28;;;22.40;63.80;;;;;;6212802;22;43851;-63
2022/08/06 03:27:01;;;;;;;0.30;0.30;;;22.40;63.80;;;;;;6184942;22;43782;-62
2022/08/06 03:29:30;;;;;;;0.30;0.30;;;22.40;63.80;;;;;;6212455;22;43293;-62
2022/08/06 03:32:00;;;;;;;0.28;0.28;;;22.40;63.80;;;;;;6213139;22;44250;-62
2022/08/06 03:34:49;;;;;;;0.47;0.43;;;22.40;63.80;;;;;;6212117;22;43655;-62
2022/08/06 03:37:20;;;;;;;0.20;0.20;;;22.30;63.80;;;;;;6212245;22;43240;-63
2022/08/06 03:40:10;;;;;;;0.55;0.20;;;22.30;63.90;;;;;;6212183;22;43293;-63
2022/08/06 03:42:39;;;;;;;0.30;0.30;;;22.30;63.80;;;;;;6213374;22;44909;-62
2022/08/06 03:45:11;;;;;;;0.20;0.20;;;22.30;63.80;;;;;;6212901;22;43807;-63
2022/08/06 03:48:02;;;;;;;0.30;0.30;;;22.30;63.80;;;;;;6212296;22;43266;-63
2022/08/06 03:50:43;;;;;;;0.38;0.30;;;22.30;63.80;;;;;;6212962;22;43312;-62
2022/08/06 03:53:23;;;;;;;0.20;0.20;;;22.30;63.80;;;;;;6212737;22;44003;-62
2022/08/06 03:55:57;;;;;;;0.10;0.10;;;22.30;63.80;;;;;;6212224;22;43711;-62
2022/08/06 03:58:27;;;;;;;0.22;0.22;;;22.30;63.80;;;;;;6212611;22;43283;-63
2022/08/06 04:01:09;;;;;;;0.20;0.20;;;22.30;63.70;;;;;;6213087;22;43331;-63
2022/08/06 04:03:38;;;;;;;0.55;0.20;;;22.30;63.80;;;;;;6212397;22;44348;-63
2022/08/06 04:06:09;;;;;;;0.20;0.20;;;22.20;63.80;;;;;;6212367;22;43927;-62
2022/08/06 04:08:46;;;;;;;0.10;0.10;;;22.20;63.80;;;;;;6211613;22;43255;-63
2022/08/06 04:11:16;;;;;;;0.38;0.20;;;22.20;63.80;;;;;;6211933;22;43447;-62
2022/08/06 04:14:04;;;;;;;0.30;0.30;;;22.20;63.80;;;;;;6211767;22;44684;-63
2022/08/06 04:16:36;;;;;;;0.28;0.28;;;22.20;63.80;;;;;;6212045;22;43210;-63
2022/08/06 04:19:05;;;;;;;0.35;0.35;;;22.20;63.80;;;;;;6212602;22;43282;-62
2022/08/06 04:21:35;;;;;;;0.20;0.20;;;22.20;63.80;;;;;;6212736;22;43326;-63
2022/08/06 04:24:24;;;;;;;0.15;0.15;;;22.20;63.70;;;;;;6211770;22;44674;-62
2022/08/06 04:27:02;;;;;;;0.10;0.10;;;22.20;63.70;;;;;;6213013;22;44142;-62
2022/08/06 04:29:37;;;;;;;0.20;0.20;;;22.20;63.70;;;;;;6211763;22;43367;-62
2022/08/06 04:32:26;;;;;;;0.38;0.38;;;22.10;63.70;;;;;;6212628;22;43194;-63
2022/08/06 04:34:57;;;;;;;0.30;0.30;;;22.10;63.70;;;;;;6212996;22;43944;-62
2022/08/06 04:37:45;;;;;;;0.30;0.30;;;22.10;63.70;;;;;;6211493;22;44110;-63
2022/08/06 04:40:17;;;;;;;0.20;0.20;;;22.10;63.70;;;;;;6212744;22;43627;-62
2022/08/06 04:43:06;;;;;;;0.10;0.10;;;22.10;63.70;;;;;;6212934;22;43312;-62
2022/08/06 04:45:37;;;;;;;0.40;0.30;;;22.10;63.70;;;;;;6211891;22;44610;-63
2022/08/06 04:48:26;;;;;;;0.22;0.22;;;22.10;63.70;;;;;;6211802;22;43231;-62
2022/08/06 04:51:04;;;;;;;0.35;0.25;;;22.10;63.70;;;;;;6212195;22;43260;-62
2022/08/06 04:53:39;;;;;;;0.20;0.20;;;22.10;63.70;;;;;;6212673;22;43336;-63
2022/08/06 04:56:23;;;;;;;0.35;0.35;;;22.10;63.70;;;;;;6212402;22;44847;-62
2022/08/06 04:59:04;;;;;;;0.68;0.30;;;22.10;63.70;;;;;;6211415;22;43233;-62
2022/08/06 05:01:34;;;;;;;0.98;0.20;;;22.10;63.80;;;;;;6212554;22;43345;-63
2022/08/06 05:04:19;;;;;;;1.08;0.38;;;22.00;63.70;;;;;;6212357;22;43323;-62
2022/08/06 05:07:11;;;;;;;0.55;0.40;;;22.00;63.70;;;;;;6211510;22;43824;-62
2022/08/06 05:09:40;;;;;;;1.05;0.30;;;22.00;63.80;;;;;;6212298;22;43666;-62
2022/08/06 05:12:25;;;;;;;0.32;0.28;;;22.10;63.80;;;;;;6211375;22;43178;-62
2022/08/06 05:15:00;;;;;;;0.20;0.20;;;22.00;63.80;;;;;;6212762;22;43376;-62
2022/08/06 05:17:32;;;;;;;0.20;0.20;;;22.00;63.80;;;;;;6212065;22;43977;-63
2022/08/06 05:20:09;;;;;;;0.28;0.20;;;22.00;63.70;;;;;;6211238;22;43258;-62
2022/08/06 05:22:59;;;;;;;0.70;0.50;;;22.00;63.70;;;;;;6212804;22;43288;-62
2022/08/06 05:25:29;;;;;;;0.30;0.30;;;22.00;63.80;;;;;;6212427;22;43800;-63
2022/08/06 05:28:04;;;;;;;0.10;0.10;;;22.00;63.80;;;;;;6211905;22;43783;-62
2022/08/06 05:30:46;;;;;;;0.25;0.20;;;22.00;63.80;;;;;;6212238;22;43623;-60
2022/08/06 05:33:31;;;;;;;0.20;0.17;;;22.00;63.80;;;;;;6211759;22;43276;-63
2022/08/06 05:36:06;;;;;;;;;;;22.00;63.90;;;;;;6213377;22;43267;-63
2022/08/06 05:38:40;;;;;;;0.30;0.30;;;22.00;64.00;;;;;;6212513;22;44916;-63
2022/08/06 05:41:26;;;;;;;1.02;0.40;;;21.90;64.00;;;;;;6211525;22;43241;-63
2022/08/06 05:43:58;;;;;;;0.28;0.28;;;22.00;64.00;;;;;;6213852;22;43272;-63
2022/08/06 05:46:50;;;;;;;0.22;0.10;;;22.00;64.00;;;;;;6211700;22;43367;-63
2022/08/06 05:49:39;;;;;;;0.43;0.30;;;22.00;64.00;;;;;;6212984;22;44625;-62
2022/08/06 05:52:34;;;;;;;0.57;0.20;;;22.00;64.00;;;;;;6213080;22;43885;-62
2022/08/06 05:55:10;;;;;;;0.20;0.20;;;22.00;64.10;;;;;;6212893;22;43204;-63
2022/08/06 05:57:49;;;;;;;0.20;0.20;;;22.00;64.10;;;;;;6213365;22;43334;-62
2022/08/06 06:00:25;;;;;;;0.38;0.38;;;22.00;64.20;;;;;;6212762;22;44594;-62
2022/08/06 06:03:12;;;;;;;0.20;0.20;;;22.00;64.20;;;;;;6212788;22;44082;-63
2022/08/06 06:05:54;;;;;;;0.30;0.20;;;22.00;64.20;;;;;;6213589;22;43220;-63
2022/08/06 06:08:36;;;;;;;0.25;0.25;;;21.90;64.10;;;;;;6212237;22;43288;-62
2022/08/06 06:11:23;;;;;;;0.40;0.40;;;21.90;64.10;;;;;;6213078;22;44756;-62
2022/08/06 06:14:29;;;;;;;0.20;0.20;;;21.90;64.10;;;;;;6213105;22;43325;-62
2022/08/06 06:17:16;;;;;;;0.20;0.20;;;22.00;64.20;;;;;;6213113;22;43284;-63
2022/08/06 06:20:18;;;;;;;0.30;0.20;;;21.90;64.10;;;;;;6213276;22;43285;-62
2022/08/06 06:23:20;;;;;;;0.30;0.30;;;22.00;64.20;;;;;;6212297;22;44660;-62
2022/08/06 06:26:03;;;;;;;0.20;0.20;;;22.00;64.20;;;;;;6213331;22;43265;-63
2022/08/06 06:28:51;;;;;;;0.35;0.35;;;21.90;64.10;;;;;;6213242;22;43304;-63
2022/08/06 06:31:26;;;;;;;0.13;0.13;;;21.90;64.10;;;;;;6213208;22;43418;-62
2022/08/06 06:34:18;;;;;;;1.48;0.32;;;21.90;64.10;;;;;;6212856;22;44638;-63
2022/08/06 06:36:57;;;;;;;0.30;0.30;;;21.90;64.20;;;;;;6212161;22;43730;-63
2022/08/06 06:39:36;;;;;;;0.30;0.30;;;21.90;64.10;;;;;;6212916;22;43260;-62
2022/08/06 06:42:36;;;;;;;0.47;0.20;;;21.90;64.20;;;;;;6213048;22;43254;-63
2022/08/06 06:45:27;;;;;;;0.82;0.30;;;21.90;64.10;;;;;;6211941;22;44644;-63
2022/08/06 06:48:23;;;;;;;0.30;0.20;;;21.90;64.10;;;;;;6212595;22;43347;-63
2022/08/06 06:51:00;;;;;;;0.55;0.40;;;21.90;64.10;;;;;;6212752;22;43838;-62
2022/08/06 06:53:35;;;;;;;0.73;0.40;;;21.90;64.10;;;;;;6213077;22;43340;-62
2022/08/06 06:56:28;;;;;;;0.30;0.30;;;21.90;64.10;;;;;;6213245;22;44892;-63
2022/08/06 06:59:03;;;;;;;0.20;0.20;;;21.90;64.10;;;;;;6212461;22;43713;-62
2022/08/06 07:01:40;;;;;;;0.43;0.30;;;21.90;64.10;;;;;;6212982;22;43263;-62
2022/08/06 07:04:18;;;;;;;0.22;0.22;;;21.90;64.10;;;;;;6212710;22;43251;-63
2022/08/06 07:06:48;;;;;;;0.30;0.22;;;21.90;64.20;;;;;;6212740;22;43981;-62
2022/08/06 07:09:29;;;;;;;0.40;0.20;;;21.90;64.20;;;;;;6212748;22;43589;-62
2022/08/06 07:12:10;;;;;;;0.40;0.25;;;21.90;64.10;;;;;;6212669;22;43289;-63
2022/08/06 07:14:50;;;;;;;0.50;0.50;;;21.90;64.20;;;;;;6213177;22;43618;-63
2022/08/06 07:17:25;;;;;;;0.68;0.50;;;21.90;64.20;;;;;;6210571;22;43984;-63
2022/08/06 07:20:14;;;;;;;1.17;0.30;;;21.90;64.20;;;;;;6210864;22;43658;-63
2022/08/06 07:22:45;;;;;;;1.83;0.38;;;21.90;64.20;;;;;;6212448;22;43351;-64
2022/08/06 07:25:41;;;;;;;2.30;0.80;;;22.00;64.20;;;;;;6211871;22;43873;-64
2022/08/06 07:28:25;;;;;;;1.50;0.40;;;22.00;64.30;;;;;;6211299;22;44914;-63
2022/08/06 07:31:00;;;;;;;0.90;0.43;;;22.00;64.20;;;;;;6212310;22;43714;-63
2022/08/06 07:33:34;;;;;;;0.57;0.40;;;22.00;64.20;;;;;;6211450;22;43311;-63
2022/08/06 07:36:25;;;;;;;0.60;0.50;;;21.90;64.30;;;;;;6212558;22;43343;-63
2022/08/06 07:38:59;;;;;;;;;;;21.90;64.30;;;;;;6212966;22;43831;-63
2022/08/06 07:41:28;;;;;;;0.50;0.40;;;21.90;64.30;;;;;;6211099;22;43397;-63
2022/08/06 07:44:17;;;;;;;0.98;0.50;;;21.90;64.40;;;;;;6212100;22;43249;-63
2022/08/06 07:46:56;;;;;;;0.40;0.40;;;21.90;64.40;;;;;;6211754;22;43234;-63
2022/08/06 07:49:33;;;;;;;0.60;0.40;;;21.90;64.40;;;;;;6212124;22;45104;-63
2022/08/06 07:52:21;;;;;;;0.68;0.50;;;21.90;64.40;;;;;;6212227;22;43637;-63
2022/08/06 07:54:55;;;;;;;0.68;0.30;;;21.90;64.40;;;;;;6184596;22;43281;-63
2022/08/06 07:57:24;;;;;;;0.93;0.60;;;22.00;64.40;;;;;;6212058;22;43463;-63
2022/08/06 07:59:59;;;;;;;0.85;0.38;;;22.00;64.40;;;;;;6212252;22;44960;-63
2022/08/06 08:02:28;;;;;;;0.73;0.50;;;22.00;64.30;;;;;;6211159;22;43673;-63
2022/08/06 08:07:45;;;;;;;0.93;0.32;;;22.10;64.20;;;;;;6211591;22;43404;-63
2022/08/06 08:10:25;;;;;;;0.40;0.38;;;22.10;64.70;;;;;;6211664;22;43992;-63
2022/08/06 08:12:57;;;;;;;0.57;0.57;;;22.20;64.00;;;;;;6212196;22;44015;-63
2022/08/06 08:15:31;;;;;;;0.65;0.60;;;22.20;63.90;;;;;;6211219;22;43248;-63
2022/08/06 08:18:09;;;;;;;0.30;0.30;;;22.20;63.90;;;;;;6212032;22;43260;-63
2022/08/06 08:20:39;;;;;;;0.63;0.60;;;22.20;63.90;;;;;;6211564;22;43996;-63
2022/08/06 08:23:20;;;;;;;1.40;0.50;;;22.30;63.90;;;;;;6210796;22;43332;-63
2022/08/06 08:26:02;;;;;;;0.40;0.40;;;22.30;63.90;;;;;;6212487;22;43220;-64
2022/08/06 08:28:31;;;;;;;0.93;0.52;;;22.30;63.90;;;;;;6210733;22;43387;-64
2022/08/06 08:31:01;;;;;;;1.17;0.60;;;22.30;63.90;;;;;;6211964;22;44009;-63
2022/08/06 08:33:47;;;;;;;2.67;0.65;;;22.30;63.90;;;;;;6208224;22;43896;-63
2022/08/06 08:36:14;;;;;;;1.65;0.55;;;22.30;63.90;;;;;;6210540;22;43275;-64
2022/08/06 08:38:42;;;;;;;2.63;0.50;;;22.30;63.90;;;;;;6211526;22;43434;-63
2022/08/06 08:41:19;;;;;;;1.63;0.88;;;22.30;63.90;;;;;;6210769;22;44907;-63
2022/08/06 08:44:01;;;;;;;0.68;0.60;;;22.30;63.80;;;;;;6210765;22;43806;-64
2022/08/06 08:46:37;;;;;;;0.75;0.65;;;22.30;63.80;;;;;;6211577;22;43212;-63
2022/08/06 08:49:25;;;;;;;3.33;0.80;;;22.30;63.80;;;;;;6211541;22;43408;-63
2022/08/06 08:51:55;;;;;;;0.40;0.40;;;22.30;63.90;;;;;;6211412;22;44187;-63
2022/08/06 08:54:26;;;;;;;0.93;0.68;;;22.30;63.90;;;;;;6211642;22;43640;-63
2022/08/06 08:56:54;;;;;;;0.60;0.60;;;22.30;63.90;;;;;;6211195;22;43253;-63
2022/08/06 08:59:43;;;;;;;0.63;0.60;;;22.30;64.00;;;;;;6211983;22;43323;-64
2022/08/06 09:02:28;;;;;;;1.38;0.70;;;22.30;64.00;;;;;;6211543;22;44563;-64
2022/08/06 09:05:00;;;;;;;0.70;0.60;;;22.30;63.90;;;;;;6210960;22;43232;-63
2022/08/06 09:07:31;;;;;;;1.00;0.88;;;22.30;64.00;;;;;;6211760;22;43209;-64
2022/08/06 09:10:09;;;;;;;1.00;0.75;;;22.30;63.80;;;;;;6211758;22;43391;-62
2022/08/06 09:12:42;;;;;;;1.17;0.90;;;22.30;63.70;;;;;;6210458;22;44009;-63
2022/08/06 09:15:17;;;;;;;1.15;0.75;;;22.40;63.60;;;;;;6211100;22;43190;-63
2022/08/06 09:17:47;;;;;;;1.17;0.80;;;22.30;63.40;;;;;;6211376;22;43306;-63
2022/08/06 09:20:36;;;;;;;1.05;0.90;;;22.30;63.50;;;;;;6210498;22;43391;-62
2022/08/06 09:23:15;;;;;;;1.00;0.90;;;22.40;63.50;;;;;;6211487;22;43963;-63
2022/08/06 09:25:48;;;;;;;0.65;0.65;;;22.40;63.50;;;;;;6211376;22;43256;-63
2022/08/06 09:28:41;;;;;;;1.35;0.88;;;22.40;63.60;;;;;;6212403;22;43243;-62
2022/08/06 09:31:16;;;;;;;1.25;0.60;;;22.30;63.60;;;;;;6212940;22;43312;-62
2022/08/06 09:33:58;;;;;;;1.67;0.77;;;22.40;63.60;;;;;;6212725;22;43701;-62
2022/08/06 09:36:48;;;;;;;0.82;0.75;;;22.40;63.50;;;;;;6213209;22;43224;-63
2022/08/06 09:39:35;;;;;;;1.08;0.90;;;22.40;63.50;;;;;;6212070;22;43216;-62
2022/08/06 09:42:40;;;;;;;1.33;1.13;;;22.40;63.40;;;;;;6213386;22;43395;-63
2022/08/06 09:45:09;;;;;;;0.90;0.90;;;22.40;63.40;;;;;;6213530;22;44683;-63
2022/08/06 09:47:44;;;;;;;0.85;0.85;;;22.40;63.50;;;;;;6212758;22;43507;-62
2022/08/06 09:50:40;;;;;;;1.40;1.20;;;22.40;63.50;;;;;;6213318;22;43672;-63
2022/08/06 09:53:12;;;;;;;1.42;1.33;;;22.40;63.10;;;;;;6212772;22;43344;-63
2022/08/06 09:55:42;;;;;;;1.30;1.20;;;22.40;63.10;;;;;;6213371;22;44004;-63
2022/08/06 09:58:11;;;;;;;1.20;1.20;;;22.40;63.30;;;;;;6213056;22;43278;-63
2022/08/06 10:00:39;;;;;;;1.00;1.00;;;22.40;63.50;;;;;;6212576;22;43340;-63
2022/08/06 10:03:09;;;;;;;1.98;1.35;;;22.40;63.30;;;;;;6213530;22;43403;-63
2022/08/06 10:06:12;;;;;;;1.55;1.23;;;22.40;64.00;;;;;;6213539;22;44891;-62
2022/08/06 10:08:44;;;;;;;1.50;1.40;;;22.40;63.30;;;;;;6212295;22;44136;-62
2022/08/06 10:11:36;;;;;;;1.25;1.15;;;22.50;63.40;;;;;;6213548;22;43302;-62
2022/08/06 10:14:27;;;;;;;1.88;1.27;;;22.40;63.30;;;;;;6212654;22;43289;-63
2022/08/06 10:17:14;;;;;;;1.40;1.30;;;22.40;63.30;;;;;;6213562;22;44477;-62
2022/08/06 10:20:04;;;;;;;2.00;1.50;;;22.50;63.50;;;;;;6212782;22;43642;-62
2022/08/06 10:22:49;;;;;;;1.58;1.30;;;22.40;63.40;;;;;;6185922;22;43336;-63
2022/08/06 10:25:17;;;;;;;1.70;1.30;;;22.50;63.50;;;;;;6213447;22;43360;-62
2022/08/06 10:27:58;;;;;;;1.58;1.48;;;22.50;63.60;;;;;;6213540;22;44638;-62
2022/08/06 10:30:27;;;;;;;;;;;22.50;63.50;;;;;;6213120;22;43644;-62
2022/08/06 10:33:06;;;;;;;1.30;1.20;;;22.50;63.50;;;;;;6213715;22;43225;-63
2022/08/06 10:35:51;;;;;;;1.52;1.42;;;22.50;63.60;;;;;;6212625;22;43289;-63
2022/08/06 10:38:23;;;;;;;1.60;1.42;;;22.50;63.60;;;;;;6213060;22;44941;-62
2022/08/06 10:41:10;;;;;;;1.63;1.42;;;22.50;63.60;;;;;;6212966;22;43910;-63
2022/08/06 10:43:58;;;;;;;2.20;1.40;;;22.50;63.60;;;;;;6191165;22;43325;-63
2022/08/06 10:46:31;;;;;;;2.10;1.30;;;22.50;63.60;;;;;;6213143;22;43208;-62
2022/08/06 10:49:02;;;;;;;1.83;1.67;;;22.60;63.60;;;;;;6187104;22;44897;-62
2022/08/06 10:51:49;;;;;;;1.50;1.40;;;22.60;63.60;;;;;;6190471;22;43675;-63
2022/08/06 10:54:26;;;;;;;1.98;1.60;;;22.60;63.50;;;;;;6210175;22;43260;-64
2022/08/06 10:56:54;;;;;;;1.70;1.60;;;22.60;63.00;;;;;;6211905;22;43280;-63
2022/08/06 10:59:22;;;;;;;1.80;1.70;;;22.60;63.00;;;;;;6211852;22;44905;-63
2022/08/06 11:02:26;;;;;;;1.70;1.60;;;22.70;63.00;;;;;;6185062;22;44580;-62
2022/08/06 11:05:07;;;;;;;3.22;1.88;;;22.70;63.00;;;;;;6212211;22;43175;-62
2022/08/06 11:08:16;;;;;;;1.70;1.60;;;22.70;63.10;;;;;;6212603;22;43424;-62
2022/08/06 11:11:37;;;;;;;1.92;1.63;;;22.70;63.10;;;;;;6211527;22;44698;-62
2022/08/06 11:14:09;;;;;;;2.13;1.58;;;22.70;63.20;;;;;;6212132;22;43707;-62
2022/08/06 11:16:56;;;;;;;1.77;1.67;;;22.80;63.30;;;;;;6212660;22;43219;-63
2022/08/06 11:19:44;;;;;;;1.80;1.70;;;22.80;63.40;;;;;;6211330;22;43405;-62
2022/08/06 11:22:40;;;;;;;2.00;1.90;;;22.80;63.30;;;;;;6212181;22;43781;-62
2022/08/06 11:25:37;;;;;;;1.67;1.58;;;22.80;63.30;;;;;;6211604;22;43784;-63
2022/08/06 11:28:10;;;;;;;2.40;1.92;;;22.80;63.20;;;;;;6211423;22;43376;-62
2022/08/06 11:30:49;;;;;;;2.38;2.10;;;22.80;63.10;;;;;;6210099;22;43411;-62
2022/08/06 11:33:32;;;;;;;1.85;1.70;;;22.90;63.20;;;;;;6209458;22;44902;-62
2022/08/06 11:36:05;;;;;;;1.65;1.55;;;22.90;63.20;;;;;;6210126;22;43678;-62
2022/08/06 11:38:42;;;;;;;2.05;1.95;;;22.90;63.20;;;;;;6209574;22;43228;-62
2022/08/06 11:41:25;;;;;;;2.13;2.00;;;22.90;63.20;;;;;;6209891;22;43289;-62
2022/08/06 11:44:17;;;;;;;1.90;1.80;;;22.90;63.20;;;;;;6210552;22;44652;-62
2022/08/06 11:47:09;;;;;;;2.20;2.00;;;23.00;63.20;;;;;;6210102;22;43637;-62
2022/08/06 11:49:40;;;;;;;2.38;2.13;;;23.00;63.20;;;;;;6210293;22;43229;-62
2022/08/06 11:52:30;;;;;;;2.40;2.20;;;23.00;63.20;;;;;;6210665;22;43438;-62
2022/08/06 11:55:08;;;;;;;2.50;2.30;;;23.10;63.30;;;;;;6193776;22;44040;-62
2022/08/06 11:58:12;;;;;;;1.92;1.83;;;23.10;63.20;;;;;;6210386;22;43713;-62
2022/08/06 12:00:59;;;;;;;2.40;2.20;;;23.10;63.10;;;;;;6186200;22;43536;-62
2022/08/06 12:03:47;;;;;;;2.08;1.98;;;23.10;63.20;;;;;;6210338;22;43272;-62
2022/08/06 12:06:25;;;;;;;2.35;2.15;;;23.10;63.20;;;;;;6210257;22;43822;-62
2022/08/06 12:09:10;;;;;;;2.05;1.95;;;23.20;63.20;;;;;;6210967;22;43611;-63
2022/08/06 12:12:29;;;;;;;2.17;2.00;;;23.20;63.20;;;;;;6211257;22;43669;-62
2022/08/06 12:15:03;;;;;;;2.60;2.40;;;23.20;63.10;;;;;;6210347;22;43270;-62
2022/08/06 12:17:53;;;;;;;2.42;2.22;;;23.20;63.10;;;;;;6206923;22;44917;-62
2022/08/06 12:20:43;;;;;;;2.40;2.30;;;23.30;63.60;;;;;;6208939;22;43656;-62
2022/08/06 12:23:21;;;;;;;2.80;2.60;;;23.30;63.40;;;;;;6209501;22;43257;-62
2022/08/06 12:25:57;;;;;;;2.33;2.22;;;23.40;63.30;;;;;;6210471;22;43326;-62
2022/08/06 12:28:25;;;;;;;2.33;2.15;;;23.40;63.20;;;;;;6154291;22;1264427;-62
2022/08/06 12:30:54;;;;;;;2.42;2.22;;;23.50;63.20;;;;;;6212020;22;43610;-62
2022/08/06 12:33:22;;;;;;;2.70;2.50;;;23.50;63.20;;;;;;6207155;22;43249;-63
2022/08/06 12:36:00;;;;;;;2.67;2.30;;;23.50;63.10;;;;;;6211487;22;43340;-63
2022/08/06 12:38:32;;;;;;;2.60;2.40;;;23.60;63.20;;;;;;6210866;22;43829;-63
2022/08/06 12:41:06;;;;;;;2.90;2.58;;;23.60;63.00;;;;;;6211429;22;43837;-62
2022/08/06 12:43:42;;;;;;;2.80;2.60;;;23.60;63.10;;;;;;6211033;22;43289;-62
2022/08/06 12:46:25;;;;;;;2.78;2.58;;;23.60;63.00;;;;;;6211066;22;43270;-62
2022/08/06 12:48:58;;;;;;;2.65;2.45;;;23.60;63.00;;;;;;6210627;22;45040;-62
2022/08/06 12:51:30;;;;;;;2.58;2.38;;;23.70;63.00;;;;;;6210898;22;43256;-63
2022/08/06 12:54:06;;;;;;;2.47;2.38;;;23.70;62.80;;;;;;6211097;22;43244;-63
2022/08/06 12:56:38;;;;;;;2.67;2.47;;;23.70;62.60;;;;;;6210175;22;43375;-62
2022/08/06 12:59:11;;;;;;;2.40;2.30;;;23.70;62.60;;;;;;6211241;22;43748;-62
2022/08/06 13:01:51;;;;;;;2.90;2.70;;;23.80;62.70;;;;;;6211678;22;43693;-63
2022/08/06 13:04:42;;;;;;;2.83;2.63;;;23.80;62.60;;;;;;6210991;22;43252;-62
2022/08/06 13:07:12;;;;;;;2.67;2.50;;;23.80;62.60;;;;;;6211808;22;43809;-63
2022/08/06 13:09:43;;;;;;;2.78;2.58;;;23.80;62.50;;;;;;6211320;22;44986;-62
2022/08/06 13:12:31;;;;;;;3.35;2.70;;;23.90;62.60;;;;;;6211116;22;43706;-62
2022/08/06 13:15:18;;;;;;;2.55;2.35;;;23.90;62.70;;;;;;6211252;22;43314;-63
2022/08/06 13:18:03;;;;;;;2.63;2.42;;;23.90;62.60;;;;;;6210524;22;43371;-63
2022/08/06 13:20:52;;;;;;;2.65;2.45;;;24.00;62.60;;;;;;6210915;22;44258;-63
2022/08/06 13:23:37;;;;;;;2.72;2.60;;;24.00;62.60;;;;;;6211325;22;43995;-63
2022/08/06 13:26:12;;;;;;;2.75;2.55;;;24.10;62.60;;;;;;6210905;22;43259;-63
2022/08/06 13:29:08;;;;;;;2.95;2.75;;;24.10;62.50;;;;;;6211206;22;43779;-63
2022/08/06 13:32:17;;;;;;;2.70;2.60;;;24.10;62.40;;;;;;6210607;22;44811;-63
2022/08/06 13:35:02;;;;;;;3.00;2.80;;;24.10;62.40;;;;;;6211665;22;43866;-63
2022/08/06 13:37:51;;;;;;;3.08;2.88;;;24.10;62.40;;;;;;6211596;22;43208;-63
2022/08/06 13:40:44;;;;;;;3.22;2.92;;;24.20;62.40;;;;;;6211342;22;43768;-62
2022/08/06 13:43:44;;;;;;;3.00;2.80;;;24.20;62.30;;;;;;6211127;22;43817;-63
2022/08/06 13:46:25;;;;;;;2.85;2.65;;;24.20;62.20;;;;;;6210102;22;43316;-63
2022/08/06 13:48:58;;;;;;;2.78;2.58;;;24.30;62.30;;;;;;6211331;22;43308;-63
2022/08/06 13:51:29;;;;;;;2.60;2.47;;;24.30;62.30;;;;;;6211001;22;43289;-63
2022/08/06 13:54:03;;;;;;;2.70;2.58;;;24.30;62.20;;;;;;6210028;22;43755;-63
2022/08/06 13:56:46;;;;;;;3.13;2.83;;;24.30;62.20;;;;;;6210809;22;44108;-63
2022/08/06 13:59:19;;;;;;;2.83;2.63;;;24.40;62.20;;;;;;6211037;22;43588;-62